sensor_id;sensor_type;location;lat;lon;timestamp;pressure;altitude;pressure_sealevel;temperature;humidity
23953;BME280;12163;49.316;6.092;2023-06-14T00:00:02;98934.63;;;19.43;36.52
23953;BME280;12163;49.316;6.092;2023-06-14T00:02:30;98936.94;;;19.41;36.84
23953;BME280;12163;49.316;6.092;2023-06-14T00:04:57;98925.13;;;19.37;37.09
23953;BME280;12163;49.316;6.092;2023-06-14T00:07:37;98934.38;;;19.33;37.29
23953;BME280;12163;49.316;6.092;2023-06-14T00:10:05;98930.41;;;19.30;37.50
23953;BME280;12163;49.316;6.092;2023-06-14T00:12:32;98931.13;;;19.27;37.32
23953;BME280;12163;49.316;6.092;2023-06-14T00:14:58;98934.94;;;19.23;37.10
23953;BME280;12163;49.316;6.092;2023-06-14T00:17:27;98932.56;;;19.21;37.93
23953;BME280;12163;49.316;6.092;2023-06-14T00:19:58;98932.56;;;19.21;37.80
23953;BME280;12163;49.316;6.092;2023-06-14T00:22:25;98935.63;;;19.20;38.22
23953;BME280;12163;49.316;6.092;2023-06-14T00:24:52;98940.31;;;19.19;37.74
23953;BME280;12163;49.316;6.092;2023-06-14T00:27:21;98934.41;;;19.17;38.00
23953;BME280;12163;49.316;6.092;2023-06-14T00:29:47;98934.75;;;19.16;37.82
23953;BME280;12163;49.316;6.092;2023-06-14T00:32:14;98930.97;;;19.20;38.22
23953;BME280;12163;49.316;6.092;2023-06-14T00:34:41;98931.84;;;19.24;37.66
23953;BME280;12163;49.316;6.092;2023-06-14T00:37:07;98937.41;;;19.28;37.49
23953;BME280;12163;49.316;6.092;2023-06-14T00:39:34;98932.72;;;19.28;38.24
23953;BME280;12163;49.316;6.092;2023-06-14T00:42:01;98936.16;;;19.25;37.75
23953;BME280;12163;49.316;6.092;2023-06-14T00:44:27;98933.44;;;19.25;37.87
23953;BME280;12163;49.316;6.092;2023-06-14T00:46:54;98939.28;;;19.24;38.40
23953;BME280;12163;49.316;6.092;2023-06-14T00:49:21;98937.59;;;19.19;38.58
23953;BME280;12163;49.316;6.092;2023-06-14T00:51:48;98944.81;;;19.12;39.04
23953;BME280;12163;49.316;6.092;2023-06-14T00:54:15;98939.94;;;19.05;38.84
23953;BME280;12163;49.316;6.092;2023-06-14T00:56:43;98942.19;;;19.00;39.34
23953;BME280;12163;49.316;6.092;2023-06-14T00:59:10;98938.91;;;18.94;38.66
23953;BME280;12163;49.316;6.092;2023-06-14T01:01:37;98946.69;;;18.92;39.35
23953;BME280;12163;49.316;6.092;2023-06-14T01:04:05;98945.09;;;18.91;39.67
23953;BME280;12163;49.316;6.092;2023-06-14T01:06:49;98941.84;;;18.86;39.18
23953;BME280;12163;49.316;6.092;2023-06-14T01:11:58;98941.03;;;18.85;38.90
23953;BME280;12163;49.316;6.092;2023-06-14T01:14:27;98942.53;;;18.83;39.42
23953;BME280;12163;49.316;6.092;2023-06-14T01:16:55;98948.72;;;18.80;39.65
23953;BME280;12163;49.316;6.092;2023-06-14T01:19:23;98942.44;;;18.79;40.22
23953;BME280;12163;49.316;6.092;2023-06-14T01:21:52;98951.03;;;18.78;39.66
23953;BME280;12163;49.316;6.092;2023-06-14T01:24:19;98950.09;;;18.74;40.15
23953;BME280;12163;49.316;6.092;2023-06-14T01:26:50;98950.91;;;18.74;40.05
23953;BME280;12163;49.316;6.092;2023-06-14T01:29:18;98966.16;;;18.75;39.83
23953;BME280;12163;49.316;6.092;2023-06-14T01:31:45;98957.97;;;18.75;40.00
23953;BME280;12163;49.316;6.092;2023-06-14T01:34:12;98953.66;;;18.74;39.90
23953;BME280;12163;49.316;6.092;2023-06-14T01:36:41;98960.28;;;18.73;40.37
23953;BME280;12163;49.316;6.092;2023-06-14T01:39:08;98955.94;;;18.73;39.95
23953;BME280;12163;49.316;6.092;2023-06-14T01:41:35;98957.88;;;18.72;40.10
23953;BME280;12163;49.316;6.092;2023-06-14T01:44:03;98960.97;;;18.71;40.32
23953;BME280;12163;49.316;6.092;2023-06-14T01:46:31;98967.94;;;18.68;40.35
23953;BME280;12163;49.316;6.092;2023-06-14T01:48:58;98960.44;;;18.65;40.61
23953;BME280;12163;49.316;6.092;2023-06-14T01:51:25;98963.06;;;18.62;40.59
23953;BME280;12163;49.316;6.092;2023-06-14T01:53:52;98956.72;;;18.58;39.95
23953;BME280;12163;49.316;6.092;2023-06-14T01:56:19;98962.63;;;18.60;39.96
23953;BME280;12163;49.316;6.092;2023-06-14T01:58:46;98952.13;;;18.62;39.89
23953;BME280;12163;49.316;6.092;2023-06-14T02:01:12;98961.91;;;18.63;40.00
23953;BME280;12163;49.316;6.092;2023-06-14T02:03:42;98964.66;;;18.63;39.85
23953;BME280;12163;49.316;6.092;2023-06-14T02:06:11;98960.78;;;18.64;40.42
23953;BME280;12163;49.316;6.092;2023-06-14T02:08:38;98967.75;;;18.61;40.28
23953;BME280;12163;49.316;6.092;2023-06-14T02:11:05;98963.78;;;18.59;40.08
23953;BME280;12163;49.316;6.092;2023-06-14T02:13:32;98969.94;;;18.56;40.09
23953;BME280;12163;49.316;6.092;2023-06-14T02:15:58;98968.34;;;18.55;40.43
23953;BME280;12163;49.316;6.092;2023-06-14T02:18:26;98964.75;;;18.51;40.46
23953;BME280;12163;49.316;6.092;2023-06-14T02:20:53;98973.66;;;18.48;40.17
23953;BME280;12163;49.316;6.092;2023-06-14T02:23:20;98976.81;;;18.50;40.52
23953;BME280;12163;49.316;6.092;2023-06-14T02:25:47;98972.84;;;18.47;40.41
23953;BME280;12163;49.316;6.092;2023-06-14T02:28:14;98973.66;;;18.48;40.87
23953;BME280;12163;49.316;6.092;2023-06-14T02:30:40;98976.72;;;18.46;41.09
23953;BME280;12163;49.316;6.092;2023-06-14T02:33:07;98972.06;;;18.47;40.79
23953;BME280;12163;49.316;6.092;2023-06-14T02:35:33;98968.88;;;18.45;40.09
23953;BME280;12163;49.316;6.092;2023-06-14T02:38:01;98971.19;;;18.43;40.61
23953;BME280;12163;49.316;6.092;2023-06-14T02:40:27;98974.34;;;18.45;40.75
23953;BME280;12163;49.316;6.092;2023-06-14T02:42:54;98975.03;;;18.42;40.61
23953;BME280;12163;49.316;6.092;2023-06-14T02:45:20;98971.41;;;18.38;40.79
23953;BME280;12163;49.316;6.092;2023-06-14T02:47:47;98978.13;;;18.40;40.90
23953;BME280;12163;49.316;6.092;2023-06-14T02:50:14;98968.97;;;18.48;40.48
23953;BME280;12163;49.316;6.092;2023-06-14T02:52:43;98964.47;;;18.56;39.46
23953;BME280;12163;49.316;6.092;2023-06-14T02:55:10;98976.72;;;18.62;39.29
23953;BME280;12163;49.316;6.092;2023-06-14T02:57:37;98976.06;;;18.65;39.93
23953;BME280;12163;49.316;6.092;2023-06-14T03:00:04;98970.13;;;18.63;39.94
23953;BME280;12163;49.316;6.092;2023-06-14T03:02:31;98981.06;;;18.63;39.10
23953;BME280;12163;49.316;6.092;2023-06-14T03:04:58;98979.66;;;18.69;40.21
23953;BME280;12163;49.316;6.092;2023-06-14T03:07:28;98977.97;;;18.64;39.80
23953;BME280;12163;49.316;6.092;2023-06-14T03:09:56;98985.75;;;18.62;40.01
23953;BME280;12163;49.316;6.092;2023-06-14T03:12:22;98977.28;;;18.67;40.17
23953;BME280;12163;49.316;6.092;2023-06-14T03:14:50;98981.25;;;18.70;40.09
23953;BME280;12163;49.316;6.092;2023-06-14T03:17:17;98980.44;;;18.69;40.58
23953;BME280;12163;49.316;6.092;2023-06-14T03:19:45;98985.91;;;18.69;40.59
23953;BME280;12163;49.316;6.092;2023-06-14T03:22:12;98986.28;;;18.68;40.28
23953;BME280;12163;49.316;6.092;2023-06-14T03:24:39;98992.91;;;18.67;39.97
23953;BME280;12163;49.316;6.092;2023-06-14T03:27:06;98995.84;;;18.62;40.90
23953;BME280;12163;49.316;6.092;2023-06-14T03:29:32;98991.53;;;18.61;40.15
23953;BME280;12163;49.316;6.092;2023-06-14T03:32:02;98992.34;;;18.61;40.28
23953;BME280;12163;49.316;6.092;2023-06-14T03:34:29;98998.59;;;18.62;40.24
23953;BME280;12163;49.316;6.092;2023-06-14T03:36:55;98995.09;;;18.61;40.47
23953;BME280;12163;49.316;6.092;2023-06-14T03:39:22;98997.44;;;18.63;40.46
23953;BME280;12163;49.316;6.092;2023-06-14T03:41:49;99004.06;;;18.62;40.37
23953;BME280;12163;49.316;6.092;2023-06-14T03:44:17;99009.91;;;18.60;40.20
23953;BME280;12163;49.316;6.092;2023-06-14T03:46:45;99006.00;;;18.61;40.06
23953;BME280;12163;49.316;6.092;2023-06-14T03:49:12;99006.72;;;18.58;40.32
23953;BME280;12163;49.316;6.092;2023-06-14T03:51:39;99011.81;;;18.60;40.42
23953;BME280;12163;49.316;6.092;2023-06-14T03:54:07;99014.56;;;18.60;40.30
23953;BME280;12163;49.316;6.092;2023-06-14T03:56:36;99011.31;;;18.54;40.04
23953;BME280;12163;49.316;6.092;2023-06-14T03:59:03;99011.75;;;18.56;40.89
23953;BME280;12163;49.316;6.092;2023-06-14T04:01:30;99013.78;;;18.59;40.95
23953;BME280;12163;49.316;6.092;2023-06-14T04:03:57;99013.41;;;18.61;40.53
23953;BME280;12163;49.316;6.092;2023-06-14T04:06:24;99018.44;;;18.59;40.85
23953;BME280;12163;49.316;6.092;2023-06-14T04:08:59;99027.78;;;18.58;41.24
23953;BME280;12163;49.316;6.092;2023-06-14T04:11:30;99035.53;;;18.56;41.61
23953;BME280;12163;49.316;6.092;2023-06-14T04:13:58;99030.94;;;18.60;41.09
23953;BME280;12163;49.316;6.092;2023-06-14T04:16:24;99040.72;;;18.61;41.73
23953;BME280;12163;49.316;6.092;2023-06-14T04:18:51;99038.00;;;18.61;41.95
23953;BME280;12163;49.316;6.092;2023-06-14T04:21:18;99038.09;;;18.64;41.20
23953;BME280;12163;49.316;6.092;2023-06-14T04:23:45;99042.97;;;18.71;40.22
23953;BME280;12163;49.316;6.092;2023-06-14T04:26:12;99040.78;;;18.76;41.49
23953;BME280;12163;49.316;6.092;2023-06-14T04:28:38;99039.72;;;18.80;40.86
23953;BME280;12163;49.316;6.092;2023-06-14T04:31:07;99046.06;;;18.84;41.04
23953;BME280;12163;49.316;6.092;2023-06-14T04:33:37;99048.13;;;18.87;40.69
23953;BME280;12163;49.316;6.092;2023-06-14T04:36:12;99049.00;;;18.91;41.01
23953;BME280;12163;49.316;6.092;2023-06-14T04:38:39;99052.63;;;18.95;40.47
23953;BME280;12163;49.316;6.092;2023-06-14T04:41:07;99049.19;;;18.98;40.24
23953;BME280;12163;49.316;6.092;2023-06-14T04:43:38;99055.63;;;19.06;39.98
23953;BME280;12163;49.316;6.092;2023-06-14T04:46:05;99055.72;;;19.09;40.41
23953;BME280;12163;49.316;6.092;2023-06-14T04:48:37;99056.94;;;19.12;40.03
23953;BME280;12163;49.316;6.092;2023-06-14T04:51:06;99059.69;;;19.58;41.83
23953;BME280;12163;49.316;6.092;2023-06-14T04:53:33;99059.41;;;20.32;41.57
23953;BME280;12163;49.316;6.092;2023-06-14T04:56:00;99059.59;;;20.80;38.62
23953;BME280;12163;49.316;6.092;2023-06-14T04:58:27;99059.47;;;21.15;38.41
23953;BME280;12163;49.316;6.092;2023-06-14T05:00:55;99059.09;;;21.39;37.01
23953;BME280;12163;49.316;6.092;2023-06-14T05:03:25;99065.19;;;21.29;36.13
23953;BME280;12163;49.316;6.092;2023-06-14T05:05:53;99063.03;;;21.41;37.19
23953;BME280;12163;49.316;6.092;2023-06-14T05:08:20;99058.78;;;21.44;36.25
23953;BME280;12163;49.316;6.092;2023-06-14T05:10:50;99067.28;;;21.61;36.26
23953;BME280;12163;49.316;6.092;2023-06-14T05:13:17;99056.78;;;21.93;35.66
23953;BME280;12163;49.316;6.092;2023-06-14T05:15:44;99061.09;;;22.20;35.56
23953;BME280;12163;49.316;6.092;2023-06-14T05:18:11;99064.88;;;22.37;35.31
23953;BME280;12163;49.316;6.092;2023-06-14T05:20:40;99056.91;;;22.58;34.87
23953;BME280;12163;49.316;6.092;2023-06-14T05:23:08;99056.72;;;22.77;34.68
23953;BME280;12163;49.316;6.092;2023-06-14T05:25:44;99059.53;;;22.81;34.33
23953;BME280;12163;49.316;6.092;2023-06-14T05:28:11;99062.78;;;22.93;34.87
23953;BME280;12163;49.316;6.092;2023-06-14T05:30:38;99066.03;;;23.02;34.75
23953;BME280;12163;49.316;6.092;2023-06-14T05:33:06;99060.59;;;23.09;34.79
23953;BME280;12163;49.316;6.092;2023-06-14T05:35:33;99060.69;;;23.16;34.47
23953;BME280;12163;49.316;6.092;2023-06-14T05:38:00;99061.97;;;23.29;34.13
23953;BME280;12163;49.316;6.092;2023-06-14T05:40:26;99060.13;;;23.40;34.16
23953;BME280;12163;49.316;6.092;2023-06-14T05:42:53;99062.91;;;23.47;33.78
23953;BME280;12163;49.316;6.092;2023-06-14T05:45:19;99067.28;;;23.52;33.65
23953;BME280;12163;49.316;6.092;2023-06-14T05:47:46;99060.97;;;23.51;33.06
23953;BME280;12163;49.316;6.092;2023-06-14T05:50:12;99066.31;;;23.30;33.93
23953;BME280;12163;49.316;6.092;2023-06-14T05:52:39;99074.56;;;23.30;33.73
23953;BME280;12163;49.316;6.092;2023-06-14T05:55:06;99065.59;;;23.37;33.50
23953;BME280;12163;49.316;6.092;2023-06-14T05:57:32;99061.69;;;23.41;33.14
23953;BME280;12163;49.316;6.092;2023-06-14T05:59:59;99065.16;;;23.31;33.37
23953;BME280;12163;49.316;6.092;2023-06-14T06:02:26;99070.66;;;23.31;32.86
23953;BME280;12163;49.316;6.092;2023-06-14T06:04:52;99068.53;;;23.14;33.52
23953;BME280;12163;49.316;6.092;2023-06-14T06:07:19;99081.00;;;23.05;33.50
23953;BME280;12163;49.316;6.092;2023-06-14T06:09:45;99079.38;;;23.00;34.14
23953;BME280;12163;49.316;6.092;2023-06-14T06:12:12;99070.06;;;23.12;33.28
23953;BME280;12163;49.316;6.092;2023-06-14T06:14:39;99072.53;;;23.20;33.15
23953;BME280;12163;49.316;6.092;2023-06-14T06:17:05;99072.88;;;23.19;33.56
23953;BME280;12163;49.316;6.092;2023-06-14T06:19:33;99086.78;;;23.33;34.16
23953;BME280;12163;49.316;6.092;2023-06-14T06:21:59;99078.28;;;23.48;33.86
23953;BME280;12163;49.316;6.092;2023-06-14T06:24:26;99081.16;;;23.62;33.30
23953;BME280;12163;49.316;6.092;2023-06-14T06:26:53;99090.59;;;23.61;33.29
23953;BME280;12163;49.316;6.092;2023-06-14T06:29:19;99079.22;;;23.66;33.63
23953;BME280;12163;49.316;6.092;2023-06-14T06:31:46;99093.78;;;23.70;32.19
23953;BME280;12163;49.316;6.092;2023-06-14T06:34:13;99085.06;;;23.61;32.89
23953;BME280;12163;49.316;6.092;2023-06-14T06:36:39;99084.69;;;23.63;32.18
23953;BME280;12163;49.316;6.092;2023-06-14T06:39:06;99074.28;;;23.42;33.38
23953;BME280;12163;49.316;6.092;2023-06-14T06:41:39;99085.97;;;23.29;32.79
23953;BME280;12163;49.316;6.092;2023-06-14T06:44:07;99084.13;;;23.03;33.22
23953;BME280;12163;49.316;6.092;2023-06-14T06:46:33;99089.06;;;22.87;34.38
23953;BME280;12163;49.316;6.092;2023-06-14T06:49:01;99091.56;;;22.99;33.70
23953;BME280;12163;49.316;6.092;2023-06-14T06:51:28;99096.03;;;23.11;34.02
23953;BME280;12163;49.316;6.092;2023-06-14T06:53:54;99098.13;;;23.24;33.93
23953;BME280;12163;49.316;6.092;2023-06-14T06:56:21;99103.41;;;23.43;33.88
23953;BME280;12163;49.316;6.092;2023-06-14T06:58:51;99101.84;;;23.42;33.54
23953;BME280;12163;49.316;6.092;2023-06-14T07:01:18;99099.28;;;23.23;34.23
23953;BME280;12163;49.316;6.092;2023-06-14T07:03:46;99102.50;;;23.29;34.40
23953;BME280;12163;49.316;6.092;2023-06-14T07:06:12;99104.19;;;23.40;34.32
23953;BME280;12163;49.316;6.092;2023-06-14T07:08:39;99106.22;;;23.47;34.34
23953;BME280;12163;49.316;6.092;2023-06-14T07:11:06;99109.06;;;23.57;34.02
23953;BME280;12163;49.316;6.092;2023-06-14T07:13:33;99109.69;;;23.40;34.63
23953;BME280;12163;49.316;6.092;2023-06-14T07:16:00;99109.63;;;23.33;34.95
23953;BME280;12163;49.316;6.092;2023-06-14T07:18:27;99106.56;;;23.45;35.42
23953;BME280;12163;49.316;6.092;2023-06-14T07:20:54;99107.16;;;23.68;34.80
23953;BME280;12163;49.316;6.092;2023-06-14T07:23:20;99107.31;;;23.82;34.57
23953;BME280;12163;49.316;6.092;2023-06-14T07:25:47;99109.34;;;23.92;34.16
23953;BME280;12163;49.316;6.092;2023-06-14T07:28:14;99112.56;;;24.01;34.04
23953;BME280;12163;49.316;6.092;2023-06-14T07:30:40;99108.66;;;24.09;33.60
23953;BME280;12163;49.316;6.092;2023-06-14T07:33:07;99114.22;;;24.16;33.65
23953;BME280;12163;49.316;6.092;2023-06-14T07:35:35;99107.19;;;24.25;33.82
23953;BME280;12163;49.316;6.092;2023-06-14T07:38:01;99111.94;;;24.25;32.77
23953;BME280;12163;49.316;6.092;2023-06-14T07:40:28;99110.75;;;24.26;33.25
23953;BME280;12163;49.316;6.092;2023-06-14T07:42:54;99116.69;;;24.31;33.29
23953;BME280;12163;49.316;6.092;2023-06-14T07:45:21;99112.78;;;24.39;32.28
23953;BME280;12163;49.316;6.092;2023-06-14T07:47:48;99109.63;;;24.41;32.80
23953;BME280;12163;49.316;6.092;2023-06-14T07:50:15;99111.63;;;24.44;32.20
23953;BME280;12163;49.316;6.092;2023-06-14T07:52:41;99112.75;;;24.36;32.74
23953;BME280;12163;49.316;6.092;2023-06-14T07:55:08;99112.78;;;24.39;32.61
23953;BME280;12163;49.316;6.092;2023-06-14T07:57:35;99106.56;;;24.53;32.79
23953;BME280;12163;49.316;6.092;2023-06-14T08:00:02;99106.63;;;24.70;32.98
23953;BME280;12163;49.316;6.092;2023-06-14T08:02:32;99107.47;;;24.85;32.42
23953;BME280;12163;49.316;6.092;2023-06-14T08:04:59;99112.25;;;24.95;31.63
23953;BME280;12163;49.316;6.092;2023-06-14T08:07:26;99113.06;;;24.99;31.66
23953;BME280;12163;49.316;6.092;2023-06-14T08:09:52;99111.47;;;24.98;31.90
23953;BME280;12163;49.316;6.092;2023-06-14T08:12:19;99117.41;;;25.03;31.53
23953;BME280;12163;49.316;6.092;2023-06-14T08:14:45;99114.25;;;25.08;31.68
23953;BME280;12163;49.316;6.092;2023-06-14T08:17:18;99114.66;;;25.10;31.15
23953;BME280;12163;49.316;6.092;2023-06-14T08:19:45;99109.53;;;25.05;31.29
23953;BME280;12163;49.316;6.092;2023-06-14T08:22:12;99104.00;;;25.05;31.00
23953;BME280;12163;49.316;6.092;2023-06-14T08:24:38;99118.56;;;24.99;31.79
23953;BME280;12163;49.316;6.092;2023-06-14T08:27:08;99114.25;;;25.05;31.40
23953;BME280;12163;49.316;6.092;2023-06-14T08:29:35;99101.22;;;25.02;30.83
23953;BME280;12163;49.316;6.092;2023-06-14T08:32:02;99117.78;;;25.02;31.24
23953;BME280;12163;49.316;6.092;2023-06-14T08:34:29;99109.13;;;25.10;31.34
23953;BME280;12163;49.316;6.092;2023-06-14T08:36:55;99108.41;;;25.20;30.89
23953;BME280;12163;49.316;6.092;2023-06-14T08:39:22;99105.25;;;25.25;31.35
23953;BME280;12163;49.316;6.092;2023-06-14T08:41:49;99108.81;;;25.40;31.21
23953;BME280;12163;49.316;6.092;2023-06-14T08:44:17;99110.41;;;25.55;31.03
23953;BME280;12163;49.316;6.092;2023-06-14T08:46:45;99116.34;;;25.64;30.92
23953;BME280;12163;49.316;6.092;2023-06-14T08:49:16;99116.72;;;25.80;30.80
23953;BME280;12163;49.316;6.092;2023-06-14T08:51:43;99112.41;;;25.96;30.69
23953;BME280;12163;49.316;6.092;2023-06-14T08:54:11;99126.22;;;26.06;29.93
23953;BME280;12163;49.316;6.092;2023-06-14T08:56:39;99111.59;;;25.99;30.06
23953;BME280;12163;49.316;6.092;2023-06-14T08:59:07;99113.97;;;26.04;30.11
23953;BME280;12163;49.316;6.092;2023-06-14T09:01:37;99117.13;;;26.09;30.03
23953;BME280;12163;49.316;6.092;2023-06-14T09:04:04;99119.09;;;26.19;29.95
23953;BME280;12163;49.316;6.092;2023-06-14T09:06:34;99116.72;;;26.21;29.69
23953;BME280;12163;49.316;6.092;2023-06-14T09:09:03;99117.88;;;26.24;29.53
23953;BME280;12163;49.316;6.092;2023-06-14T09:11:30;99112.34;;;26.31;29.32
23953;BME280;12163;49.316;6.092;2023-06-14T09:13:57;99107.16;;;26.43;29.62
23953;BME280;12163;49.316;6.092;2023-06-14T09:16:25;99109.13;;;26.57;29.98
23953;BME280;12163;49.316;6.092;2023-06-14T09:18:53;99114.22;;;26.65;28.72
23953;BME280;12163;49.316;6.092;2023-06-14T09:21:20;99103.13;;;26.76;28.96
23953;BME280;12163;49.316;6.092;2023-06-14T09:23:48;99107.00;;;26.85;28.63
23953;BME280;12163;49.316;6.092;2023-06-14T09:26:16;99110.13;;;26.94;28.43
23953;BME280;12163;49.316;6.092;2023-06-14T09:28:44;99107.41;;;26.80;28.08
23953;BME280;12163;49.316;6.092;2023-06-14T09:31:17;99119.34;;;26.70;28.51
23953;BME280;12163;49.316;6.092;2023-06-14T09:33:46;99116.16;;;26.75;28.15
23953;BME280;12163;49.316;6.092;2023-06-14T09:36:20;99122.50;;;26.69;28.45
23953;BME280;12163;49.316;6.092;2023-06-14T09:38:57;99120.91;;;26.75;28.68
23953;BME280;12163;49.316;6.092;2023-06-14T09:41:35;99118.50;;;26.80;27.03
23953;BME280;12163;49.316;6.092;2023-06-14T09:44:04;99124.47;;;26.79;27.07
23953;BME280;12163;49.316;6.092;2023-06-14T09:46:37;99129.56;;;26.80;27.91
23953;BME280;12163;49.316;6.092;2023-06-14T09:49:05;99127.13;;;27.00;27.49
23953;BME280;12163;49.316;6.092;2023-06-14T09:51:33;99117.56;;;27.08;26.03
23953;BME280;12163;49.316;6.092;2023-06-14T09:54:02;99123.16;;;26.97;26.17
23953;BME280;12163;49.316;6.092;2023-06-14T09:56:38;99124.69;;;27.05;25.86
23953;BME280;12163;49.316;6.092;2023-06-14T09:59:09;99127.44;;;27.19;26.03
23953;BME280;12163;49.316;6.092;2023-06-14T10:01:43;99126.25;;;27.20;25.59
23953;BME280;12163;49.316;6.092;2023-06-14T10:04:12;99121.13;;;27.15;25.14
23953;BME280;12163;49.316;6.092;2023-06-14T10:06:45;99118.38;;;27.05;26.17
23953;BME280;12163;49.316;6.092;2023-06-14T10:09:12;99116.38;;;27.05;26.15
23953;BME280;12163;49.316;6.092;2023-06-14T10:11:39;99114.44;;;27.09;26.30
23953;BME280;12163;49.316;6.092;2023-06-14T10:14:11;99109.56;;;27.27;26.51
23953;BME280;12163;49.316;6.092;2023-06-14T10:17:00;99111.84;;;27.43;25.66
23953;BME280;12163;49.316;6.092;2023-06-14T10:19:50;99102.22;;;27.58;25.22
23953;BME280;12163;49.316;6.092;2023-06-14T10:22:25;99118.75;;;27.68;24.67
23953;BME280;12163;49.316;6.092;2023-06-14T10:24:56;99110.81;;;27.74;24.77
23953;BME280;12163;49.316;6.092;2023-06-14T10:27:22;99097.66;;;27.84;24.30
23953;BME280;12163;49.316;6.092;2023-06-14T10:32:25;99102.50;;;28.14;23.75
23953;BME280;12163;49.316;6.092;2023-06-14T10:35:00;99107.13;;;28.27;23.35
23953;BME280;12163;49.316;6.092;2023-06-14T10:37:27;99089.69;;;28.27;23.65
23953;BME280;12163;49.316;6.092;2023-06-14T10:39:54;99081.66;;;28.39;23.61
23953;BME280;12163;49.316;6.092;2023-06-14T10:42:21;99086.16;;;28.60;23.64
23953;BME280;12163;49.316;6.092;2023-06-14T10:44:50;99087.31;;;28.62;23.46
23953;BME280;12163;49.316;6.092;2023-06-14T10:47:22;99089.72;;;28.60;23.20
23953;BME280;12163;49.316;6.092;2023-06-14T10:49:50;99100.03;;;28.60;23.20
23953;BME280;12163;49.316;6.092;2023-06-14T10:52:25;99099.66;;;28.58;23.46
23953;BME280;12163;49.316;6.092;2023-06-14T10:57:28;99084.53;;;28.62;23.48
23953;BME280;12163;49.316;6.092;2023-06-14T10:59:54;99082.09;;;28.68;23.79
23953;BME280;12163;49.316;6.092;2023-06-14T11:05:54;99094.69;;;28.76;23.81
23953;BME280;12163;49.316;6.092;2023-06-14T11:09:31;99087.81;;;28.84;23.64
23953;BME280;12163;49.316;6.092;2023-06-14T11:11:32;99099.38;;;28.82;22.93
23953;BME280;12163;49.316;6.092;2023-06-14T11:14:02;99099.50;;;28.72;23.18
23953;BME280;12163;49.316;6.092;2023-06-14T11:16:29;99092.19;;;28.85;22.85
23953;BME280;12163;49.316;6.092;2023-06-14T11:21:40;99087.94;;;29.07;21.80
23953;BME280;12163;49.316;6.092;2023-06-14T11:24:10;99083.88;;;29.15;22.29
23953;BME280;12163;49.316;6.092;2023-06-14T11:26:39;99087.25;;;29.26;21.25
23953;BME280;12163;49.316;6.092;2023-06-14T11:29:06;99089.84;;;29.40;21.81
23953;BME280;12163;49.316;6.092;2023-06-14T11:31:33;99071.31;;;29.56;22.06
23953;BME280;12163;49.316;6.092;2023-06-14T11:34:00;99064.91;;;29.59;21.21
23953;BME280;12163;49.316;6.092;2023-06-14T11:36:31;99073.06;;;29.47;21.42
23953;BME280;12163;49.316;6.092;2023-06-14T11:39:03;99075.44;;;29.45;21.90
23953;BME280;12163;49.316;6.092;2023-06-14T11:41:43;99074.19;;;29.53;21.88
23953;BME280;12163;49.316;6.092;2023-06-14T11:44:11;99077.06;;;29.68;21.91
23953;BME280;12163;49.316;6.092;2023-06-14T11:46:38;99070.63;;;29.94;20.77
23953;BME280;12163;49.316;6.092;2023-06-14T11:49:07;99067.50;;;29.92;20.46
23953;BME280;12163;49.316;6.092;2023-06-14T11:51:34;99078.75;;;29.85;20.43
23953;BME280;12163;49.316;6.092;2023-06-14T11:54:02;99065.06;;;29.49;20.65
23953;BME280;12163;49.316;6.092;2023-06-14T11:56:31;99063.78;;;29.30;20.67
23953;BME280;12163;49.316;6.092;2023-06-14T11:58:59;99068.88;;;29.09;19.53
23953;BME280;12163;49.316;6.092;2023-06-14T12:01:26;99059.63;;;28.89;19.86
23953;BME280;12163;49.316;6.092;2023-06-14T12:03:54;99061.47;;;28.99;20.14
23953;BME280;12163;49.316;6.092;2023-06-14T12:06:28;99075.84;;;28.94;20.99
23953;BME280;12163;49.316;6.092;2023-06-14T12:08:59;99066.47;;;29.11;20.78
23953;BME280;12163;49.316;6.092;2023-06-14T12:11:34;99064.50;;;29.08;20.78
23953;BME280;12163;49.316;6.092;2023-06-14T12:14:03;99066.53;;;29.04;20.82
23953;BME280;12163;49.316;6.092;2023-06-14T12:16:34;99067.97;;;29.15;20.79
23953;BME280;12163;49.316;6.092;2023-06-14T12:21:39;99080.09;;;29.55;20.14
23953;BME280;12163;49.316;6.092;2023-06-14T12:24:11;99068.03;;;29.61;20.40
23953;BME280;12163;49.316;6.092;2023-06-14T12:26:40;99073.50;;;29.68;20.44
23953;BME280;12163;49.316;6.092;2023-06-14T12:29:10;99071.41;;;29.53;20.90
23953;BME280;12163;49.316;6.092;2023-06-14T12:31:39;99056.50;;;29.63;20.19
23953;BME280;12163;49.316;6.092;2023-06-14T12:34:07;99063.66;;;29.63;20.85
23953;BME280;12163;49.316;6.092;2023-06-14T12:36:33;99067.00;;;29.52;21.14
23953;BME280;12163;49.316;6.092;2023-06-14T12:39:02;99062.56;;;29.58;21.73
23953;BME280;12163;49.316;6.092;2023-06-14T12:41:28;99065.34;;;29.80;21.52
23953;BME280;12163;49.316;6.092;2023-06-14T12:43:55;99055.91;;;29.97;20.82
23953;BME280;12163;49.316;6.092;2023-06-14T12:46:24;99053.22;;;29.90;20.83
23953;BME280;12163;49.316;6.092;2023-06-14T12:48:51;99058.59;;;30.01;21.04
23953;BME280;12163;49.316;6.092;2023-06-14T12:51:17;99061.47;;;30.20;21.39
23953;BME280;12163;49.316;6.092;2023-06-14T12:53:44;99064.09;;;30.27;20.71
23953;BME280;12163;49.316;6.092;2023-06-14T12:56:10;99058.00;;;30.32;21.17
23953;BME280;12163;49.316;6.092;2023-06-14T12:58:37;99073.41;;;30.17;20.84
23953;BME280;12163;49.316;6.092;2023-06-14T13:01:04;99061.94;;;29.92;20.55
23953;BME280;12163;49.316;6.092;2023-06-14T13:03:30;99063.28;;;29.84;20.85
23953;BME280;12163;49.316;6.092;2023-06-14T13:06:00;99069.91;;;29.90;21.31
23953;BME280;12163;49.316;6.092;2023-06-14T13:08:27;99062.78;;;30.12;20.94
23953;BME280;12163;49.316;6.092;2023-06-14T13:10:54;99067.78;;;30.21;20.57
23953;BME280;12163;49.316;6.092;2023-06-14T13:13:21;99063.59;;;30.32;20.12
23953;BME280;12163;49.316;6.092;2023-06-14T13:15:48;99056.44;;;30.31;19.92
23953;BME280;12163;49.316;6.092;2023-06-14T13:18:16;99062.88;;;30.28;20.77
23953;BME280;12163;49.316;6.092;2023-06-14T13:20:42;99077.59;;;30.48;20.92